sensor_id;sensor_type;location;lat;lon;timestamp;pressure;altitude;pressure_sealevel;temperature;humidity
56414;BME280;42318;48.452;19.526;2023-02-21T00:00:01;97869.59;;;21.40;48.39
56414;BME280;42318;48.452;19.526;2023-02-21T00:08:11;97857.06;;;21.39;48.43
56414;BME280;42318;48.452;19.526;2023-02-21T00:16:00;97849.41;;;21.41;47.93
56414;BME280;42318;48.452;19.526;2023-02-21T00:23:50;97839.06;;;21.38;48.17
56414;BME280;42318;48.452;19.526;2023-02-21T00:31:39;97839.88;;;21.44;48.00
56414;BME280;42318;48.452;19.526;2023-02-21T00:39:29;97857.59;;;21.41;48.06
56414;BME280;42318;48.452;19.526;2023-02-21T00:47:18;97836.59;;;21.42;47.87
56414;BME280;42318;48.452;19.526;2023-02-21T00:55:07;97835.78;;;21.41;47.93
56414;BME280;42318;48.452;19.526;2023-02-21T01:02:57;97818.34;;;21.42;47.80
56414;BME280;42318;48.452;19.526;2023-02-21T01:10:46;97814.00;;;21.41;47.67
56414;BME280;42318;48.452;19.526;2023-02-21T01:18:35;97803.88;;;21.47;47.71
56414;BME280;42318;48.452;19.526;2023-02-21T01:26:25;97799.78;;;21.44;47.66
56414;BME280;42318;48.452;19.526;2023-02-21T01:34:14;97781.81;;;21.43;47.61
56414;BME280;42318;48.452;19.526;2023-02-21T01:42:03;97761.63;;;21.44;47.21
56414;BME280;42318;48.452;19.526;2023-02-21T01:49:53;97760.00;;;21.43;47.57
56414;BME280;42318;48.452;19.526;2023-02-21T01:57:43;97740.41;;;21.41;47.13
56414;BME280;42318;48.452;19.526;2023-02-21T02:05:35;97734.66;;;21.43;47.44
56414;BME280;42318;48.452;19.526;2023-02-21T02:21:41;97714.50;;;21.44;47.54
56414;BME280;42318;48.452;19.526;2023-02-21T02:37:34;97713.16;;;21.41;47.16
56414;BME280;42318;48.452;19.526;2023-02-21T02:52:52;97714.22;;;21.45;47.00
56414;BME280;42318;48.452;19.526;2023-02-21T03:00:23;97726.22;;;21.44;46.97
56414;BME280;42318;48.452;19.526;2023-02-21T03:08:26;97730.31;;;21.42;47.28
56414;BME280;42318;48.452;19.526;2023-02-21T03:23:38;97731.41;;;21.41;47.39
56414;BME280;42318;48.452;19.526;2023-02-21T03:31:12;97727.59;;;21.42;46.88
56414;BME280;42318;48.452;19.526;2023-02-21T03:38:45;97719.13;;;21.43;46.96
56414;BME280;42318;48.452;19.526;2023-02-21T03:46:16;97716.69;;;21.42;47.05
56414;BME280;42318;48.452;19.526;2023-02-21T03:53:47;97721.84;;;21.43;46.93
56414;BME280;42318;48.452;19.526;2023-02-21T04:01:18;97712.88;;;21.43;46.77
56414;BME280;42318;48.452;19.526;2023-02-21T04:08:49;97730.84;;;21.44;47.10
56414;BME280;42318;48.452;19.526;2023-02-21T04:16:19;97719.41;;;21.42;47.02
56414;BME280;42318;48.452;19.526;2023-02-21T04:23:50;97715.88;;;21.41;46.77
56414;BME280;42318;48.452;19.526;2023-02-21T04:31:22;97730.56;;;21.45;46.86
56414;BME280;42318;48.452;19.526;2023-02-21T04:38:53;97730.03;;;21.43;46.77
56414;BME280;42318;48.452;19.526;2023-02-21T04:46:24;97711.25;;;21.42;46.96
56414;BME280;42318;48.452;19.526;2023-02-21T04:53:55;97719.66;;;21.45;46.88
56414;BME280;42318;48.452;19.526;2023-02-21T05:01:28;97709.56;;;21.46;46.61
56414;BME280;42318;48.452;19.526;2023-02-21T05:09:01;97703.88;;;21.42;46.92
56414;BME280;42318;48.452;19.526;2023-02-21T05:16:32;97710.97;;;21.43;46.77
56414;BME280;42318;48.452;19.526;2023-02-21T05:24:06;97709.84;;;21.44;46.75
56414;BME280;42318;48.452;19.526;2023-02-21T05:31:37;97715.03;;;21.46;46.50
56414;BME280;42318;48.452;19.526;2023-02-21T05:39:08;97710.97;;;21.43;46.69
56414;BME280;42318;48.452;19.526;2023-02-21T05:46:39;97710.44;;;21.41;46.61
56414;BME280;42318;48.452;19.526;2023-02-21T05:54:14;97702.25;;;21.41;46.57
56414;BME280;42318;48.452;19.526;2023-02-21T06:01:47;97700.63;;;21.40;46.69
56414;BME280;42318;48.452;19.526;2023-02-21T06:09:18;97722.97;;;21.42;46.45
56414;BME280;42318;48.452;19.526;2023-02-21T06:16:49;97713.16;;;21.41;46.38
56414;BME280;42318;48.452;19.526;2023-02-21T06:24:20;97715.03;;;21.46;46.91
56414;BME280;42318;48.452;19.526;2023-02-21T06:31:56;97724.22;;;21.55;47.02
56414;BME280;42318;48.452;19.526;2023-02-21T06:39:27;97744.38;;;21.59;47.23
56414;BME280;42318;48.452;19.526;2023-02-21T06:46:57;97736.75;;;21.56;47.86
56414;BME280;42318;48.452;19.526;2023-02-21T06:54:28;97753.34;;;21.59;47.69
56414;BME280;42318;48.452;19.526;2023-02-21T07:01:59;97743.50;;;21.63;48.01
56414;BME280;42318;48.452;19.526;2023-02-21T07:09:32;97754.41;;;21.69;47.55
56414;BME280;42318;48.452;19.526;2023-02-21T07:17:03;97757.91;;;21.74;47.73
56414;BME280;42318;48.452;19.526;2023-02-21T07:24:33;97762.00;;;21.72;47.84
56414;BME280;42318;48.452;19.526;2023-02-21T07:32:04;97759.28;;;21.72;48.16
56414;BME280;42318;48.452;19.526;2023-02-21T07:39:35;97752.44;;;21.74;48.01
56414;BME280;42318;48.452;19.526;2023-02-21T07:47:06;97776.13;;;21.79;48.04
56414;BME280;42318;48.452;19.526;2023-02-21T07:54:37;97766.81;;;21.85;48.11
56414;BME280;42318;48.452;19.526;2023-02-21T08:02:12;97749.44;;;21.76;48.16
56414;BME280;42318;48.452;19.526;2023-02-21T08:09:43;97762.63;;;21.58;48.49
56414;BME280;42318;48.452;19.526;2023-02-21T08:17:14;97770.34;;;21.46;48.73
56414;BME280;42318;48.452;19.526;2023-02-21T08:24:48;97761.41;;;21.41;48.88
56414;BME280;42318;48.452;19.526;2023-02-21T08:32:19;97758.97;;;21.34;48.52
56414;BME280;42318;48.452;19.526;2023-02-21T08:39:51;97788.13;;;21.39;48.32
56414;BME280;42318;48.452;19.526;2023-02-21T08:47:22;97757.31;;;21.38;48.51
56414;BME280;42318;48.452;19.526;2023-02-21T08:54:53;97770.66;;;21.40;48.63
56414;BME280;42318;48.452;19.526;2023-02-21T09:02:24;97791.38;;;21.41;48.21
56414;BME280;42318;48.452;19.526;2023-02-21T09:09:55;97785.00;;;21.55;49.34
56414;BME280;42318;48.452;19.526;2023-02-21T09:17:25;97793.28;;;21.84;50.62
56414;BME280;42318;48.452;19.526;2023-02-21T09:24:57;97788.50;;;22.00;50.65
56414;BME280;42318;48.452;19.526;2023-02-21T09:32:28;97799.69;;;22.04;50.52
56414;BME280;42318;48.452;19.526;2023-02-21T09:39:59;97811.63;;;22.13;50.56
56414;BME280;42318;48.452;19.526;2023-02-21T09:47:32;97806.94;;;22.18;50.18
56414;BME280;42318;48.452;19.526;2023-02-21T09:55:32;97818.16;;;22.17;50.04
56414;BME280;42318;48.452;19.526;2023-02-21T10:10:45;97830.47;;;22.14;50.32
56414;BME280;42318;48.452;19.526;2023-02-21T10:26:24;97844.41;;;22.08;50.50
56414;BME280;42318;48.452;19.526;2023-02-21T10:33:55;97821.50;;;22.04;50.62
56414;BME280;42318;48.452;19.526;2023-02-21T10:41:29;97816.31;;;22.02;50.91
56414;BME280;42318;48.452;19.526;2023-02-21T10:56:54;97824.47;;;22.07;51.35
56414;BME280;42318;48.452;19.526;2023-02-21T11:04:28;97843.28;;;22.09;51.46
56414;BME280;42318;48.452;19.526;2023-02-21T11:12:05;97853.72;;;21.97;51.73
56414;BME280;42318;48.452;19.526;2023-02-21T11:19:57;97855.31;;;22.08;51.46
56414;BME280;42318;48.452;19.526;2023-02-21T11:27:38;97860.03;;;21.92;51.71
56414;BME280;42318;48.452;19.526;2023-02-21T11:42:49;97906.97;;;21.89;50.89
56414;BME280;42318;48.452;19.526;2023-02-21T11:50:29;97886.25;;;21.88;50.97
56414;BME280;42318;48.452;19.526;2023-02-21T11:58:05;97881.09;;;21.81;50.72
56414;BME280;42318;48.452;19.526;2023-02-21T12:21:16;97886.91;;;21.64;50.79
56414;BME280;42318;48.452;19.526;2023-02-21T12:52:40;97873.09;;;21.46;50.17
56414;BME280;42318;48.452;19.526;2023-02-21T13:07:55;97881.31;;;21.41;50.00
56414;BME280;42318;48.452;19.526;2023-02-21T13:15:30;97874.53;;;21.33;49.92
56414;BME280;42318;48.452;19.526;2023-02-21T13:23:41;97883.53;;;21.13;50.47
56414;BME280;42318;48.452;19.526;2023-02-21T13:31:21;97881.94;;;21.07;50.70
56414;BME280;42318;48.452;19.526;2023-02-21T13:54:11;97891.16;;;21.11;50.61
56414;BME280;42318;48.452;19.526;2023-02-21T14:01:42;97892.56;;;20.98;50.83
56414;BME280;42318;48.452;19.526;2023-02-21T14:09:16;97895.31;;;20.93;51.10
56414;BME280;42318;48.452;19.526;2023-02-21T14:16:51;97898.59;;;20.90;51.02
56414;BME280;42318;48.452;19.526;2023-02-21T14:24:25;97890.97;;;20.87;50.86
56414;BME280;42318;48.452;19.526;2023-02-21T14:39:37;97897.50;;;20.86;50.82
56414;BME280;42318;48.452;19.526;2023-02-21T14:55:01;97889.88;;;20.88;50.68
56414;BME280;42318;48.452;19.526;2023-02-21T15:10:29;97897.50;;;20.86;50.79
56414;BME280;42318;48.452;19.526;2023-02-21T15:25:36;97895.63;;;20.82;50.90
56414;BME280;42318;48.452;19.526;2023-02-21T15:33:14;97899.16;;;20.87;50.87
56414;BME280;42318;48.452;19.526;2023-02-21T15:40:46;97901.59;;;20.89;50.82
56414;BME280;42318;48.452;19.526;2023-02-21T15:48:17;97913.81;;;21.01;50.45
56414;BME280;42318;48.452;19.526;2023-02-21T15:55:50;97910.03;;;20.87;50.64
56414;BME280;42318;48.452;19.526;2023-02-21T16:03:38;97919.81;;;20.93;50.33
56414;BME280;42318;48.452;19.526;2023-02-21T16:11:09;97923.06;;;21.00;50.26
56414;BME280;42318;48.452;19.526;2023-02-21T16:18:40;97944.31;;;20.98;50.49
56414;BME280;42318;48.452;19.526;2023-02-21T16:33:42;97947.00;;;21.19;49.67
56414;BME280;42318;48.452;19.526;2023-02-21T16:41:13;97954.38;;;21.23;49.59
56414;BME280;42318;48.452;19.526;2023-02-21T16:48:45;97970.47;;;21.25;49.55
56414;BME280;42318;48.452;19.526;2023-02-21T16:56:15;97975.06;;;21.24;49.76
56414;BME280;42318;48.452;19.526;2023-02-21T17:03:46;97978.34;;;21.16;49.63
56414;BME280;42318;48.452;19.526;2023-02-21T17:11:17;97980.00;;;20.97;50.02
56414;BME280;42318;48.452;19.526;2023-02-21T17:18:48;97976.47;;;21.01;49.85
56414;BME280;42318;48.452;19.526;2023-02-21T17:26:19;97986.25;;;21.08;49.66
56414;BME280;42318;48.452;19.526;2023-02-21T17:33:51;97987.38;;;20.91;49.94
56414;BME280;42318;48.452;19.526;2023-02-21T17:41:22;97979.75;;;20.83;49.88
56414;BME280;42318;48.452;19.526;2023-02-21T17:48:53;97993.88;;;20.75;50.05
56414;BME280;42318;48.452;19.526;2023-02-21T17:56:24;97995.50;;;20.76;49.97
56414;BME280;42318;48.452;19.526;2023-02-21T18:03:55;98002.03;;;20.80;50.09
56414;BME280;42318;48.452;19.526;2023-02-21T18:11:26;97997.97;;;20.78;49.83
56414;BME280;42318;48.452;19.526;2023-02-21T18:18:57;98011.34;;;20.89;49.48
56414;BME280;42318;48.452;19.526;2023-02-21T18:26:28;98010.50;;;20.94;49.48
56414;BME280;42318;48.452;19.526;2023-02-21T18:33:59;98007.78;;;20.89;49.32
56414;BME280;42318;48.452;19.526;2023-02-21T18:41:31;98009.41;;;20.75;49.65
56414;BME280;42318;48.452;19.526;2023-02-21T18:49:02;98022.50;;;20.88;49.43
56414;BME280;42318;48.452;19.526;2023-02-21T18:56:34;98017.31;;;20.86;49.46
56414;BME280;42318;48.452;19.526;2023-02-21T19:04:04;98025.75;;;20.90;49.06
56414;BME280;42318;48.452;19.526;2023-02-21T19:11:36;98025.50;;;20.86;49.12
56414;BME280;42318;48.452;19.526;2023-02-21T19:19:07;98018.41;;;20.90;49.06
56414;BME280;42318;48.452;19.526;2023-02-21T19:26:38;98035.84;;;20.84;49.26
56414;BME280;42318;48.452;19.526;2023-02-21T19:34:10;98039.09;;;20.91;49.03
56414;BME280;42318;48.452;19.526;2023-02-21T19:41:43;98043.19;;;20.89;49.04
56414;BME280;42318;48.452;19.526;2023-02-21T19:49:13;98055.19;;;20.83;49.08
56414;BME280;42318;48.452;19.526;2023-02-21T19:56:47;98065.22;;;20.72;49.96
56414;BME280;42318;48.452;19.526;2023-02-21T20:04:20;98062.53;;;20.87;49.65
56414;BME280;42318;48.452;19.526;2023-02-21T20:11:51;98044.56;;;20.86;49.49
56414;BME280;42318;48.452;19.526;2023-02-21T20:19:23;98046.69;;;20.74;49.95
56414;BME280;42318;48.452;19.526;2023-02-21T20:26:54;98041.53;;;20.78;50.18
56414;BME280;42318;48.452;19.526;2023-02-21T20:34:25;98051.63;;;20.87;49.58
56414;BME280;42318;48.452;19.526;2023-02-21T20:41:58;98056.22;;;20.72;50.32
56414;BME280;42318;48.452;19.526;2023-02-21T20:49:30;98062.22;;;20.68;50.26
56414;BME280;42318;48.452;19.526;2023-02-21T20:57:01;98067.13;;;20.66;50.70
56414;BME280;42318;48.452;19.526;2023-02-21T21:04:38;98068.22;;;20.76;50.48
56414;BME280;42318;48.452;19.526;2023-02-21T21:12:12;98066.28;;;20.71;50.89
56414;BME280;42318;48.452;19.526;2023-02-21T21:19:45;98074.19;;;20.73;50.48
56414;BME280;42318;48.452;19.526;2023-02-21T21:27:18;98082.63;;;20.76;50.64
56414;BME280;42318;48.452;19.526;2023-02-21T21:34:51;98069.56;;;20.73;50.89
56414;BME280;42318;48.452;19.526;2023-02-21T21:42:26;98079.91;;;20.66;51.30
56414;BME280;42318;48.452;19.526;2023-02-21T21:49:57;98077.72;;;20.63;51.18
56414;BME280;42318;48.452;19.526;2023-02-21T21:57:29;98090.25;;;20.79;50.62
56414;BME280;42318;48.452;19.526;2023-02-21T22:04:59;98088.09;;;20.76;50.66
56414;BME280;42318;48.452;19.526;2023-02-21T22:12:30;98087.53;;;20.74;50.99
56414;BME280;42318;48.452;19.526;2023-02-21T22:20:02;98095.22;;;20.87;50.63
56414;BME280;42318;48.452;19.526;2023-02-21T22:27:46;98099.28;;;20.90;50.44
56414;BME280;42318;48.452;19.526;2023-02-21T22:35:19;98096.84;;;20.83;50.58
56414;BME280;42318;48.452;19.526;2023-02-21T22:42:51;98111.28;;;20.89;50.48
56414;BME280;42318;48.452;19.526;2023-02-21T22:50:23;98109.91;;;20.91;50.24
56414;BME280;42318;48.452;19.526;2023-02-21T22:57:56;98116.19;;;20.92;50.05
56414;BME280;42318;48.452;19.526;2023-02-21T23:05:28;98126.78;;;20.83;50.32
56414;BME280;42318;48.452;19.526;2023-02-21T23:12:59;98122.16;;;20.89;49.99
56414;BME280;42318;48.452;19.526;2023-02-21T23:20:30;98114.81;;;20.89;50.01
56414;BME280;42318;48.452;19.526;2023-02-21T23:28:05;98109.63;;;20.88;50.12
56414;BME280;42318;48.452;19.526;2023-02-21T23:35:36;98119.16;;;20.90;50.03
56414;BME280;42318;48.452;19.526;2023-02-21T23:43:11;98112.09;;;20.84;50.07
56414;BME280;42318;48.452;19.526;2023-02-21T23:50:43;98116.44;;;20.90;49.86
56414;BME280;42318;48.452;19.526;2023-02-21T23:58:16;98116.19;;;20.92;50.10
